sensor_id;sensor_type;location;lat;lon;timestamp;P1;durP1;ratioP1;P2;durP2;ratioP2
10687;SDS011;5392;42.688;23.298;2023-12-07T00:00:00;24.25;;;17.23;;
10687;SDS011;5392;42.688;23.298;2023-12-07T00:02:26;26.75;;;18.33;;
10687;SDS011;5392;42.688;23.298;2023-12-07T00:04:53;29.35;;;17.90;;
10687;SDS011;5392;42.688;23.298;2023-12-07T00:07:20;26.13;;;17.80;;
10687;SDS011;5392;42.688;23.298;2023-12-07T00:09:47;24.73;;;17.52;;
10687;SDS011;5392;42.688;23.298;2023-12-07T00:12:14;26.08;;;18.20;;
10687;SDS011;5392;42.688;23.298;2023-12-07T00:14:41;29.08;;;18.42;;
10687;SDS011;5392;42.688;23.298;2023-12-07T00:17:08;24.75;;;18.17;;
10687;SDS011;5392;42.688;23.298;2023-12-07T00:19:34;27.70;;;18.40;;
10687;SDS011;5392;42.688;23.298;2023-12-07T00:22:02;31.20;;;20.52;;
10687;SDS011;5392;42.688;23.298;2023-12-07T00:24:29;31.23;;;20.98;;
10687;SDS011;5392;42.688;23.298;2023-12-07T00:26:57;30.42;;;20.33;;
10687;SDS011;5392;42.688;23.298;2023-12-07T00:29:23;30.52;;;20.25;;
10687;SDS011;5392;42.688;23.298;2023-12-07T00:31:50;31.17;;;20.92;;
10687;SDS011;5392;42.688;23.298;2023-12-07T00:34:18;29.48;;;20.63;;
10687;SDS011;5392;42.688;23.298;2023-12-07T00:36:45;30.70;;;21.05;;
10687;SDS011;5392;42.688;23.298;2023-12-07T00:39:12;30.73;;;21.65;;
10687;SDS011;5392;42.688;23.298;2023-12-07T00:41:39;30.73;;;21.98;;
10687;SDS011;5392;42.688;23.298;2023-12-07T00:44:05;34.95;;;22.52;;
10687;SDS011;5392;42.688;23.298;2023-12-07T00:46:32;32.90;;;21.50;;
10687;SDS011;5392;42.688;23.298;2023-12-07T00:48:59;34.25;;;21.77;;
10687;SDS011;5392;42.688;23.298;2023-12-07T00:51:27;37.05;;;23.63;;
10687;SDS011;5392;42.688;23.298;2023-12-07T00:53:53;41.60;;;23.50;;
10687;SDS011;5392;42.688;23.298;2023-12-07T00:56:20;37.17;;;23.13;;
10687;SDS011;5392;42.688;23.298;2023-12-07T00:58:47;37.25;;;22.90;;
10687;SDS011;5392;42.688;23.298;2023-12-07T01:01:14;32.92;;;21.73;;
10687;SDS011;5392;42.688;23.298;2023-12-07T01:03:41;34.20;;;21.80;;
10687;SDS011;5392;42.688;23.298;2023-12-07T01:06:07;32.35;;;21.10;;
10687;SDS011;5392;42.688;23.298;2023-12-07T01:08:37;34.63;;;20.95;;
10687;SDS011;5392;42.688;23.298;2023-12-07T01:11:04;32.80;;;20.85;;
10687;SDS011;5392;42.688;23.298;2023-12-07T01:13:31;30.35;;;19.80;;
10687;SDS011;5392;42.688;23.298;2023-12-07T01:15:59;30.15;;;20.02;;
10687;SDS011;5392;42.688;23.298;2023-12-07T01:18:25;29.77;;;20.40;;
10687;SDS011;5392;42.688;23.298;2023-12-07T01:20:53;36.83;;;22.27;;
10687;SDS011;5392;42.688;23.298;2023-12-07T01:23:20;32.83;;;21.92;;
10687;SDS011;5392;42.688;23.298;2023-12-07T01:25:47;33.22;;;22.38;;
10687;SDS011;5392;42.688;23.298;2023-12-07T01:28:14;39.05;;;22.67;;
10687;SDS011;5392;42.688;23.298;2023-12-07T01:30:41;37.08;;;22.73;;
10687;SDS011;5392;42.688;23.298;2023-12-07T01:33:08;37.63;;;21.98;;
10687;SDS011;5392;42.688;23.298;2023-12-07T01:35:34;36.67;;;23.02;;
10687;SDS011;5392;42.688;23.298;2023-12-07T01:38:01;38.88;;;23.38;;
10687;SDS011;5392;42.688;23.298;2023-12-07T01:40:28;47.55;;;30.05;;
10687;SDS011;5392;42.688;23.298;2023-12-07T01:42:55;41.25;;;25.25;;
10687;SDS011;5392;42.688;23.298;2023-12-07T01:45:22;39.10;;;25.15;;
10687;SDS011;5392;42.688;23.298;2023-12-07T01:47:50;38.05;;;23.88;;
10687;SDS011;5392;42.688;23.298;2023-12-07T01:50:19;38.78;;;22.75;;
10687;SDS011;5392;42.688;23.298;2023-12-07T01:52:52;35.30;;;21.77;;
10687;SDS011;5392;42.688;23.298;2023-12-07T01:55:23;36.00;;;22.27;;
10687;SDS011;5392;42.688;23.298;2023-12-07T01:57:51;35.78;;;22.00;;
10687;SDS011;5392;42.688;23.298;2023-12-07T02:00:18;37.15;;;21.77;;
10687;SDS011;5392;42.688;23.298;2023-12-07T02:02:45;36.28;;;21.52;;
10687;SDS011;5392;42.688;23.298;2023-12-07T02:05:14;33.75;;;20.48;;
10687;SDS011;5392;42.688;23.298;2023-12-07T02:07:41;35.38;;;20.60;;
10687;SDS011;5392;42.688;23.298;2023-12-07T02:10:10;31.92;;;20.70;;
10687;SDS011;5392;42.688;23.298;2023-12-07T02:12:37;35.58;;;21.17;;
10687;SDS011;5392;42.688;23.298;2023-12-07T02:15:04;33.08;;;21.17;;
10687;SDS011;5392;42.688;23.298;2023-12-07T02:17:35;37.65;;;21.83;;
10687;SDS011;5392;42.688;23.298;2023-12-07T02:20:14;38.70;;;23.08;;
10687;SDS011;5392;42.688;23.298;2023-12-07T02:23:03;36.60;;;21.63;;
10687;SDS011;5392;42.688;23.298;2023-12-07T02:25:43;41.90;;;22.90;;
10687;SDS011;5392;42.688;23.298;2023-12-07T02:28:48;39.15;;;22.75;;
10687;SDS011;5392;42.688;23.298;2023-12-07T02:31:15;37.67;;;23.52;;
10687;SDS011;5392;42.688;23.298;2023-12-07T02:33:42;44.95;;;24.75;;
10687;SDS011;5392;42.688;23.298;2023-12-07T02:36:09;38.47;;;24.30;;
10687;SDS011;5392;42.688;23.298;2023-12-07T02:38:36;45.67;;;25.35;;
10687;SDS011;5392;42.688;23.298;2023-12-07T02:41:04;43.10;;;25.83;;
10687;SDS011;5392;42.688;23.298;2023-12-07T02:43:33;46.63;;;25.48;;
10687;SDS011;5392;42.688;23.298;2023-12-07T02:46:00;45.42;;;26.02;;
10687;SDS011;5392;42.688;23.298;2023-12-07T02:48:28;42.72;;;24.90;;
10687;SDS011;5392;42.688;23.298;2023-12-07T02:50:56;40.33;;;23.50;;
10687;SDS011;5392;42.688;23.298;2023-12-07T02:53:22;44.78;;;24.70;;
10687;SDS011;5392;42.688;23.298;2023-12-07T02:55:49;42.47;;;25.00;;
10687;SDS011;5392;42.688;23.298;2023-12-07T02:58:16;44.20;;;25.02;;
10687;SDS011;5392;42.688;23.298;2023-12-07T03:00:43;45.65;;;25.33;;
10687;SDS011;5392;42.688;23.298;2023-12-07T03:03:09;39.00;;;24.63;;
10687;SDS011;5392;42.688;23.298;2023-12-07T03:05:36;39.92;;;24.77;;
10687;SDS011;5392;42.688;23.298;2023-12-07T03:08:03;33.97;;;21.77;;
10687;SDS011;5392;42.688;23.298;2023-12-07T03:10:30;34.65;;;20.80;;
10687;SDS011;5392;42.688;23.298;2023-12-07T03:12:57;33.72;;;21.23;;
10687;SDS011;5392;42.688;23.298;2023-12-07T03:15:24;28.20;;;18.63;;
10687;SDS011;5392;42.688;23.298;2023-12-07T03:17:51;31.60;;;18.40;;
10687;SDS011;5392;42.688;23.298;2023-12-07T03:20:18;28.20;;;18.17;;
10687;SDS011;5392;42.688;23.298;2023-12-07T03:22:44;31.15;;;19.75;;
10687;SDS011;5392;42.688;23.298;2023-12-07T03:25:11;30.63;;;19.17;;
10687;SDS011;5392;42.688;23.298;2023-12-07T03:27:38;28.42;;;19.38;;
10687;SDS011;5392;42.688;23.298;2023-12-07T03:30:05;30.80;;;19.00;;
10687;SDS011;5392;42.688;23.298;2023-12-07T03:32:33;27.63;;;17.98;;
10687;SDS011;5392;42.688;23.298;2023-12-07T03:35:00;30.25;;;18.85;;
10687;SDS011;5392;42.688;23.298;2023-12-07T03:37:27;26.17;;;16.85;;
10687;SDS011;5392;42.688;23.298;2023-12-07T03:39:53;24.48;;;16.35;;
10687;SDS011;5392;42.688;23.298;2023-12-07T03:42:20;28.48;;;16.88;;
10687;SDS011;5392;42.688;23.298;2023-12-07T03:45:07;29.17;;;17.73;;
10687;SDS011;5392;42.688;23.298;2023-12-07T03:47:34;27.17;;;18.17;;
10687;SDS011;5392;42.688;23.298;2023-12-07T03:50:01;28.05;;;17.67;;
10687;SDS011;5392;42.688;23.298;2023-12-07T03:52:28;26.85;;;16.80;;
10687;SDS011;5392;42.688;23.298;2023-12-07T03:54:55;28.35;;;17.50;;
10687;SDS011;5392;42.688;23.298;2023-12-07T03:57:22;26.80;;;17.33;;
10687;SDS011;5392;42.688;23.298;2023-12-07T03:59:48;29.73;;;16.67;;
10687;SDS011;5392;42.688;23.298;2023-12-07T04:02:15;25.88;;;16.85;;
10687;SDS011;5392;42.688;23.298;2023-12-07T04:04:42;25.40;;;16.77;;
10687;SDS011;5392;42.688;23.298;2023-12-07T04:07:09;28.08;;;17.38;;
10687;SDS011;5392;42.688;23.298;2023-12-07T04:09:36;24.40;;;16.75;;
10687;SDS011;5392;42.688;23.298;2023-12-07T04:12:03;22.30;;;14.57;;
10687;SDS011;5392;42.688;23.298;2023-12-07T04:14:31;24.60;;;15.55;;
10687;SDS011;5392;42.688;23.298;2023-12-07T04:16:57;24.10;;;15.52;;
10687;SDS011;5392;42.688;23.298;2023-12-07T04:19:24;25.70;;;16.05;;
10687;SDS011;5392;42.688;23.298;2023-12-07T04:21:51;25.75;;;17.48;;
10687;SDS011;5392;42.688;23.298;2023-12-07T04:24:18;22.35;;;15.10;;
10687;SDS011;5392;42.688;23.298;2023-12-07T04:26:45;23.10;;;15.88;;
10687;SDS011;5392;42.688;23.298;2023-12-07T04:29:11;24.23;;;16.20;;
10687;SDS011;5392;42.688;23.298;2023-12-07T04:31:38;26.27;;;17.52;;
10687;SDS011;5392;42.688;23.298;2023-12-07T04:34:05;25.55;;;16.48;;
10687;SDS011;5392;42.688;23.298;2023-12-07T04:36:32;24.02;;;15.82;;
10687;SDS011;5392;42.688;23.298;2023-12-07T04:38:59;27.08;;;17.35;;
10687;SDS011;5392;42.688;23.298;2023-12-07T04:41:26;23.92;;;17.17;;
10687;SDS011;5392;42.688;23.298;2023-12-07T04:43:53;29.48;;;19.38;;
10687;SDS011;5392;42.688;23.298;2023-12-07T04:46:20;28.45;;;18.88;;
10687;SDS011;5392;42.688;23.298;2023-12-07T04:48:47;27.60;;;19.60;;
10687;SDS011;5392;42.688;23.298;2023-12-07T04:51:14;29.52;;;18.88;;
10687;SDS011;5392;42.688;23.298;2023-12-07T04:53:41;28.85;;;18.48;;
10687;SDS011;5392;42.688;23.298;2023-12-07T04:56:08;29.08;;;20.73;;
10687;SDS011;5392;42.688;23.298;2023-12-07T04:58:35;23.90;;;16.85;;
10687;SDS011;5392;42.688;23.298;2023-12-07T05:01:02;27.23;;;18.40;;
10687;SDS011;5392;42.688;23.298;2023-12-07T05:03:31;28.40;;;19.35;;
10687;SDS011;5392;42.688;23.298;2023-12-07T05:05:58;31.30;;;21.38;;
10687;SDS011;5392;42.688;23.298;2023-12-07T05:08:25;30.95;;;22.42;;
10687;SDS011;5392;42.688;23.298;2023-12-07T05:10:52;33.20;;;22.40;;
10687;SDS011;5392;42.688;23.298;2023-12-07T05:13:19;36.13;;;24.00;;
10687;SDS011;5392;42.688;23.298;2023-12-07T05:15:46;38.63;;;26.60;;
10687;SDS011;5392;42.688;23.298;2023-12-07T05:18:13;40.25;;;27.60;;
10687;SDS011;5392;42.688;23.298;2023-12-07T05:20:40;34.83;;;23.58;;
10687;SDS011;5392;42.688;23.298;2023-12-07T05:23:07;36.63;;;25.30;;
10687;SDS011;5392;42.688;23.298;2023-12-07T05:25:34;33.15;;;22.77;;
10687;SDS011;5392;42.688;23.298;2023-12-07T05:28:00;32.88;;;22.38;;
10687;SDS011;5392;42.688;23.298;2023-12-07T05:30:27;33.95;;;22.23;;
10687;SDS011;5392;42.688;23.298;2023-12-07T05:32:54;30.75;;;22.33;;
10687;SDS011;5392;42.688;23.298;2023-12-07T05:35:21;33.03;;;22.77;;
10687;SDS011;5392;42.688;23.298;2023-12-07T05:37:49;35.90;;;23.13;;
10687;SDS011;5392;42.688;23.298;2023-12-07T05:40:16;32.67;;;21.40;;
10687;SDS011;5392;42.688;23.298;2023-12-07T05:42:43;27.65;;;19.63;;
10687;SDS011;5392;42.688;23.298;2023-12-07T05:45:11;28.80;;;20.45;;
10687;SDS011;5392;42.688;23.298;2023-12-07T05:47:37;27.65;;;19.92;;
10687;SDS011;5392;42.688;23.298;2023-12-07T05:50:04;30.50;;;21.48;;
10687;SDS011;5392;42.688;23.298;2023-12-07T05:52:32;30.33;;;20.88;;
10687;SDS011;5392;42.688;23.298;2023-12-07T05:54:59;28.40;;;19.90;;
10687;SDS011;5392;42.688;23.298;2023-12-07T05:57:26;35.88;;;23.27;;
10687;SDS011;5392;42.688;23.298;2023-12-07T05:59:52;28.05;;;19.80;;
10687;SDS011;5392;42.688;23.298;2023-12-07T06:02:19;30.85;;;20.40;;
10687;SDS011;5392;42.688;23.298;2023-12-07T06:04:46;29.00;;;19.27;;
10687;SDS011;5392;42.688;23.298;2023-12-07T06:07:13;27.25;;;16.80;;
10687;SDS011;5392;42.688;23.298;2023-12-07T06:09:40;25.27;;;17.73;;
10687;SDS011;5392;42.688;23.298;2023-12-07T06:12:08;27.70;;;16.73;;
10687;SDS011;5392;42.688;23.298;2023-12-07T06:14:34;20.15;;;15.57;;
10687;SDS011;5392;42.688;23.298;2023-12-07T06:17:01;24.10;;;17.52;;
10687;SDS011;5392;42.688;23.298;2023-12-07T06:19:28;27.55;;;18.83;;
10687;SDS011;5392;42.688;23.298;2023-12-07T06:21:55;25.85;;;17.35;;
10687;SDS011;5392;42.688;23.298;2023-12-07T06:24:24;33.17;;;21.08;;
10687;SDS011;5392;42.688;23.298;2023-12-07T06:26:51;36.15;;;21.90;;
10687;SDS011;5392;42.688;23.298;2023-12-07T06:29:18;44.05;;;28.23;;
10687;SDS011;5392;42.688;23.298;2023-12-07T06:31:45;35.28;;;23.83;;
10687;SDS011;5392;42.688;23.298;2023-12-07T06:34:12;30.27;;;21.65;;
10687;SDS011;5392;42.688;23.298;2023-12-07T06:36:39;31.83;;;22.58;;
10687;SDS011;5392;42.688;23.298;2023-12-07T06:39:06;37.83;;;24.60;;
10687;SDS011;5392;42.688;23.298;2023-12-07T06:41:33;34.95;;;23.23;;
10687;SDS011;5392;42.688;23.298;2023-12-07T06:44:00;30.95;;;20.58;;
10687;SDS011;5392;42.688;23.298;2023-12-07T06:46:27;26.27;;;19.58;;
10687;SDS011;5392;42.688;23.298;2023-12-07T06:48:54;31.25;;;20.13;;
10687;SDS011;5392;42.688;23.298;2023-12-07T06:51:21;26.42;;;18.70;;
10687;SDS011;5392;42.688;23.298;2023-12-07T06:53:48;29.30;;;20.63;;
10687;SDS011;5392;42.688;23.298;2023-12-07T06:56:15;29.27;;;21.23;;
10687;SDS011;5392;42.688;23.298;2023-12-07T06:58:41;28.30;;;20.20;;
10687;SDS011;5392;42.688;23.298;2023-12-07T07:01:08;27.42;;;19.33;;
10687;SDS011;5392;42.688;23.298;2023-12-07T07:03:35;25.75;;;18.45;;
10687;SDS011;5392;42.688;23.298;2023-12-07T07:06:02;24.23;;;16.63;;
10687;SDS011;5392;42.688;23.298;2023-12-07T07:08:29;23.42;;;16.67;;
10687;SDS011;5392;42.688;23.298;2023-12-07T07:10:56;23.80;;;15.23;;
10687;SDS011;5392;42.688;23.298;2023-12-07T07:13:23;17.63;;;12.80;;
10687;SDS011;5392;42.688;23.298;2023-12-07T07:15:50;19.63;;;14.70;;
10687;SDS011;5392;42.688;23.298;2023-12-07T07:18:17;16.23;;;11.32;;
10687;SDS011;5392;42.688;23.298;2023-12-07T07:20:44;13.18;;;10.45;;
10687;SDS011;5392;42.688;23.298;2023-12-07T07:23:11;13.93;;;10.13;;
10687;SDS011;5392;42.688;23.298;2023-12-07T07:25:38;20.30;;;13.93;;
10687;SDS011;5392;42.688;23.298;2023-12-07T07:28:05;17.23;;;12.63;;
10687;SDS011;5392;42.688;23.298;2023-12-07T07:30:32;16.17;;;11.70;;
10687;SDS011;5392;42.688;23.298;2023-12-07T07:32:59;13.60;;;11.00;;
10687;SDS011;5392;42.688;23.298;2023-12-07T07:35:26;13.45;;;9.65;;
10687;SDS011;5392;42.688;23.298;2023-12-07T07:37:53;16.27;;;10.98;;
10687;SDS011;5392;42.688;23.298;2023-12-07T07:40:21;12.90;;;9.60;;
10687;SDS011;5392;42.688;23.298;2023-12-07T07:42:48;14.00;;;9.68;;
10687;SDS011;5392;42.688;23.298;2023-12-07T07:45:14;10.82;;;6.93;;
10687;SDS011;5392;42.688;23.298;2023-12-07T07:47:42;8.00;;;6.65;;
10687;SDS011;5392;42.688;23.298;2023-12-07T07:50:10;6.93;;;6.00;;
10687;SDS011;5392;42.688;23.298;2023-12-07T07:52:37;7.95;;;6.82;;
10687;SDS011;5392;42.688;23.298;2023-12-07T07:55:06;6.70;;;5.65;;
10687;SDS011;5392;42.688;23.298;2023-12-07T07:57:34;5.72;;;5.00;;
10687;SDS011;5392;42.688;23.298;2023-12-07T08:00:01;6.32;;;5.70;;
10687;SDS011;5392;42.688;23.298;2023-12-07T08:02:28;6.20;;;5.55;;
10687;SDS011;5392;42.688;23.298;2023-12-07T08:04:55;13.35;;;11.35;;
10687;SDS011;5392;42.688;23.298;2023-12-07T08:07:22;13.60;;;10.40;;
10687;SDS011;5392;42.688;23.298;2023-12-07T08:09:49;17.88;;;11.80;;
10687;SDS011;5392;42.688;23.298;2023-12-07T08:12:16;23.27;;;16.80;;
10687;SDS011;5392;42.688;23.298;2023-12-07T08:14:43;44.22;;;32.40;;
10687;SDS011;5392;42.688;23.298;2023-12-07T08:17:12;13.10;;;11.75;;
10687;SDS011;5392;42.688;23.298;2023-12-07T08:19:39;11.10;;;10.10;;
10687;SDS011;5392;42.688;23.298;2023-12-07T08:22:08;14.25;;;12.00;;
10687;SDS011;5392;42.688;23.298;2023-12-07T08:24:35;8.13;;;7.22;;
10687;SDS011;5392;42.688;23.298;2023-12-07T08:27:03;3.72;;;3.47;;
10687;SDS011;5392;42.688;23.298;2023-12-07T08:29:30;3.30;;;3.00;;
10687;SDS011;5392;42.688;23.298;2023-12-07T08:31:57;3.47;;;3.15;;
10687;SDS011;5392;42.688;23.298;2023-12-07T08:34:24;3.35;;;2.90;;
10687;SDS011;5392;42.688;23.298;2023-12-07T08:36:52;4.75;;;3.05;;
10687;SDS011;5392;42.688;23.298;2023-12-07T08:39:18;3.00;;;2.80;;
10687;SDS011;5392;42.688;23.298;2023-12-07T08:41:45;3.50;;;3.30;;
10687;SDS011;5392;42.688;23.298;2023-12-07T08:44:13;4.47;;;4.07;;
10687;SDS011;5392;42.688;23.298;2023-12-07T08:46:40;20.48;;;16.25;;
10687;SDS011;5392;42.688;23.298;2023-12-07T08:49:08;11.90;;;10.73;;
10687;SDS011;5392;42.688;23.298;2023-12-07T08:51:35;8.57;;;7.60;;
10687;SDS011;5392;42.688;23.298;2023-12-07T08:54:02;2.17;;;2.13;;
10687;SDS011;5392;42.688;23.298;2023-12-07T08:56:29;3.35;;;2.40;;
10687;SDS011;5392;42.688;23.298;2023-12-07T08:58:56;2.60;;;2.30;;
10687;SDS011;5392;42.688;23.298;2023-12-07T09:01:22;3.33;;;2.30;;
10687;SDS011;5392;42.688;23.298;2023-12-07T09:03:58;2.08;;;1.98;;
10687;SDS011;5392;42.688;23.298;2023-12-07T09:06:25;1.83;;;1.73;;
10687;SDS011;5392;42.688;23.298;2023-12-07T09:08:53;4.18;;;3.17;;
10687;SDS011;5392;42.688;23.298;2023-12-07T09:11:19;4.07;;;3.67;;
10687;SDS011;5392;42.688;23.298;2023-12-07T09:13:46;3.47;;;3.28;;
10687;SDS011;5392;42.688;23.298;2023-12-07T09:16:13;8.75;;;7.78;;
10687;SDS011;5392;42.688;23.298;2023-12-07T09:18:41;7.43;;;6.75;;
10687;SDS011;5392;42.688;23.298;2023-12-07T09:21:09;2.20;;;2.10;;
10687;SDS011;5392;42.688;23.298;2023-12-07T09:23:36;2.85;;;2.65;;
10687;SDS011;5392;42.688;23.298;2023-12-07T09:26:04;3.17;;;3.08;;
10687;SDS011;5392;42.688;23.298;2023-12-07T09:28:31;2.40;;;1.77;;
10687;SDS011;5392;42.688;23.298;2023-12-07T09:30:59;2.22;;;2.05;;
10687;SDS011;5392;42.688;23.298;2023-12-07T09:33:26;2.45;;;1.88;;
10687;SDS011;5392;42.688;23.298;2023-12-07T09:35:53;2.20;;;1.70;;
10687;SDS011;5392;42.688;23.298;2023-12-07T09:38:20;1.73;;;1.65;;
10687;SDS011;5392;42.688;23.298;2023-12-07T09:40:47;4.10;;;3.83;;
10687;SDS011;5392;42.688;23.298;2023-12-07T09:43:19;4.00;;;3.22;;
10687;SDS011;5392;42.688;23.298;2023-12-07T09:45:46;3.22;;;2.92;;
10687;SDS011;5392;42.688;23.298;2023-12-07T09:48:15;2.00;;;1.40;;
10687;SDS011;5392;42.688;23.298;2023-12-07T09:50:43;1.05;;;0.90;;
10687;SDS011;5392;42.688;23.298;2023-12-07T09:53:10;1.63;;;1.00;;
10687;SDS011;5392;42.688;23.298;2023-12-07T09:55:37;2.88;;;1.33;;
10687;SDS011;5392;42.688;23.298;2023-12-07T09:58:07;3.80;;;1.58;;
10687;SDS011;5392;42.688;23.298;2023-12-07T10:00:36;1.17;;;1.08;;
10687;SDS011;5392;42.688;23.298;2023-12-07T10:03:04;1.63;;;0.93;;
10687;SDS011;5392;42.688;23.298;2023-12-07T10:08:29;3.50;;;2.85;;
10687;SDS011;5392;42.688;23.298;2023-12-07T10:11:07;2.20;;;1.85;;
10687;SDS011;5392;42.688;23.298;2023-12-07T10:13:35;0.68;;;0.65;;
10687;SDS011;5392;42.688;23.298;2023-12-07T10:16:07;3.38;;;1.30;;
10687;SDS011;5392;42.688;23.298;2023-12-07T10:18:39;0.63;;;0.63;;
10687;SDS011;5392;42.688;23.298;2023-12-07T10:21:10;8.60;;;1.77;;
10687;SDS011;5392;42.688;23.298;2023-12-07T10:23:37;1.02;;;1.00;;
10687;SDS011;5392;42.688;23.298;2023-12-07T10:26:06;1.50;;;1.40;;
10687;SDS011;5392;42.688;23.298;2023-12-07T10:28:34;0.85;;;0.80;;
10687;SDS011;5392;42.688;23.298;2023-12-07T10:31:08;10.05;;;9.20;;
10687;SDS011;5392;42.688;23.298;2023-12-07T10:33:36;21.58;;;17.25;;
10687;SDS011;5392;42.688;23.298;2023-12-07T10:36:03;6.93;;;6.53;;
10687;SDS011;5392;42.688;23.298;2023-12-07T10:38:31;9.13;;;8.23;;
10687;SDS011;5392;42.688;23.298;2023-12-07T10:41:05;9.88;;;9.00;;
10687;SDS011;5392;42.688;23.298;2023-12-07T10:43:36;11.85;;;10.48;;
10687;SDS011;5392;42.688;23.298;2023-12-07T10:46:05;9.18;;;8.35;;
10687;SDS011;5392;42.688;23.298;2023-12-07T10:48:32;9.63;;;8.73;;
10687;SDS011;5392;42.688;23.298;2023-12-07T10:51:00;7.97;;;7.18;;
10687;SDS011;5392;42.688;23.298;2023-12-07T10:53:31;9.50;;;6.03;;
10687;SDS011;5392;42.688;23.298;2023-12-07T10:56:09;3.78;;;2.65;;
10687;SDS011;5392;42.688;23.298;2023-12-07T10:58:37;3.65;;;3.42;;
10687;SDS011;5392;42.688;23.298;2023-12-07T11:01:07;3.38;;;2.95;;
10687;SDS011;5392;42.688;23.298;2023-12-07T11:03:38;3.70;;;2.35;;
10687;SDS011;5392;42.688;23.298;2023-12-07T11:06:07;4.85;;;3.85;;
10687;SDS011;5392;42.688;23.298;2023-12-07T11:08:39;3.05;;;2.85;;
10687;SDS011;5392;42.688;23.298;2023-12-07T11:14:23;1.95;;;1.60;;
10687;SDS011;5392;42.688;23.298;2023-12-07T11:16:52;3.45;;;1.83;;
10687;SDS011;5392;42.688;23.298;2023-12-07T11:22:00;7.53;;;2.72;;
10687;SDS011;5392;42.688;23.298;2023-12-07T11:24:28;2.30;;;2.15;;
10687;SDS011;5392;42.688;23.298;2023-12-07T11:26:55;4.30;;;2.13;;
10687;SDS011;5392;42.688;23.298;2023-12-07T11:29:25;5.00;;;4.50;;
10687;SDS011;5392;42.688;23.298;2023-12-07T11:31:55;6.63;;;3.22;;
10687;SDS011;5392;42.688;23.298;2023-12-07T11:34:36;3.30;;;2.28;;
10687;SDS011;5392;42.688;23.298;2023-12-07T11:37:08;12.38;;;8.25;;
10687;SDS011;5392;42.688;23.298;2023-12-07T11:39:40;11.90;;;10.70;;
10687;SDS011;5392;42.688;23.298;2023-12-07T11:42:11;10.85;;;9.82;;
10687;SDS011;5392;42.688;23.298;2023-12-07T11:44:42;12.13;;;10.23;;
10687;SDS011;5392;42.688;23.298;2023-12-07T11:47:16;9.63;;;8.45;;
10687;SDS011;5392;42.688;23.298;2023-12-07T11:49:45;5.80;;;4.78;;
10687;SDS011;5392;42.688;23.298;2023-12-07T11:52:16;8.98;;;4.57;;
10687;SDS011;5392;42.688;23.298;2023-12-07T11:54:48;7.18;;;2.83;;
10687;SDS011;5392;42.688;23.298;2023-12-07T11:57:17;3.70;;;3.40;;
10687;SDS011;5392;42.688;23.298;2023-12-07T11:59:44;1.70;;;1.58;;
10687;SDS011;5392;42.688;23.298;2023-12-07T12:02:11;1.27;;;1.17;;
10687;SDS011;5392;42.688;23.298;2023-12-07T12:04:40;2.25;;;2.05;;
10687;SDS011;5392;42.688;23.298;2023-12-07T12:07:07;1.80;;;1.60;;
10687;SDS011;5392;42.688;23.298;2023-12-07T12:09:34;3.88;;;2.25;;
10687;SDS011;5392;42.688;23.298;2023-12-07T12:12:01;5.57;;;2.63;;
10687;SDS011;5392;42.688;23.298;2023-12-07T12:14:29;1.65;;;1.17;;
10687;SDS011;5392;42.688;23.298;2023-12-07T12:16:56;3.78;;;1.60;;
10687;SDS011;5392;42.688;23.298;2023-12-07T12:19:23;3.05;;;1.70;;
10687;SDS011;5392;42.688;23.298;2023-12-07T12:22:00;3.72;;;1.75;;
10687;SDS011;5392;42.688;23.298;2023-12-07T12:24:32;2.05;;;1.63;;
10687;SDS011;5392;42.688;23.298;2023-12-07T12:27:00;4.03;;;3.53;;
10687;SDS011;5392;42.688;23.298;2023-12-07T12:29:28;4.63;;;2.80;;
10687;SDS011;5392;42.688;23.298;2023-12-07T12:32:01;2.30;;;2.05;;
10687;SDS011;5392;42.688;23.298;2023-12-07T12:34:29;2.90;;;2.70;;
10687;SDS011;5392;42.688;23.298;2023-12-07T12:36:59;3.90;;;3.45;;
10687;SDS011;5392;42.688;23.298;2023-12-07T12:39:29;7.63;;;5.82;;
10687;SDS011;5392;42.688;23.298;2023-12-07T12:41:59;9.80;;;7.43;;
10687;SDS011;5392;42.688;23.298;2023-12-07T12:44:27;14.88;;;9.30;;
10687;SDS011;5392;42.688;23.298;2023-12-07T12:47:04;5.43;;;4.55;;
10687;SDS011;5392;42.688;23.298;2023-12-07T12:49:36;3.50;;;3.20;;
10687;SDS011;5392;42.688;23.298;2023-12-07T12:52:04;2.95;;;2.60;;
10687;SDS011;5392;42.688;23.298;2023-12-07T12:54:31;4.53;;;3.60;;
10687;SDS011;5392;42.688;23.298;2023-12-07T12:57:02;4.78;;;4.35;;
10687;SDS011;5392;42.688;23.298;2023-12-07T12:59:29;5.20;;;3.55;;
10687;SDS011;5392;42.688;23.298;2023-12-07T13:01:56;2.58;;;2.38;;
10687;SDS011;5392;42.688;23.298;2023-12-07T13:04:23;3.28;;;2.97;;
10687;SDS011;5392;42.688;23.298;2023-12-07T13:06:51;3.13;;;2.92;;
10687;SDS011;5392;42.688;23.298;2023-12-07T13:09:18;3.00;;;2.80;;
10687;SDS011;5392;42.688;23.298;2023-12-07T13:11:47;4.78;;;3.22;;
10687;SDS011;5392;42.688;23.298;2023-12-07T13:14:15;5.95;;;2.55;;
10687;SDS011;5392;42.688;23.298;2023-12-07T13:16:45;6.50;;;3.78;;
10687;SDS011;5392;42.688;23.298;2023-12-07T13:19:12;4.45;;;3.95;;
10687;SDS011;5392;42.688;23.298;2023-12-07T13:21:39;6.75;;;6.18;;
10687;SDS011;5392;42.688;23.298;2023-12-07T13:24:06;15.35;;;13.75;;
10687;SDS011;5392;42.688;23.298;2023-12-07T13:26:34;12.77;;;11.55;;
10687;SDS011;5392;42.688;23.298;2023-12-07T13:29:01;8.27;;;7.53;;
10687;SDS011;5392;42.688;23.298;2023-12-07T13:31:27;8.18;;;7.47;;
10687;SDS011;5392;42.688;23.298;2023-12-07T13:33:54;7.53;;;5.93;;
10687;SDS011;5392;42.688;23.298;2023-12-07T13:36:25;7.10;;;6.43;;
10687;SDS011;5392;42.688;23.298;2023-12-07T13:38:55;12.60;;;7.18;;
10687;SDS011;5392;42.688;23.298;2023-12-07T13:41:22;7.82;;;5.10;;
10687;SDS011;5392;42.688;23.298;2023-12-07T13:43:49;5.18;;;4.70;;
10687;SDS011;5392;42.688;23.298;2023-12-07T13:46:17;4.97;;;4.55;;
10687;SDS011;5392;42.688;23.298;2023-12-07T13:48:44;7.00;;;5.10;;
10687;SDS011;5392;42.688;23.298;2023-12-07T13:51:11;7.50;;;6.80;;
10687;SDS011;5392;42.688;23.298;2023-12-07T13:53:41;9.10;;;7.47;;
10687;SDS011;5392;42.688;23.298;2023-12-07T13:56:08;11.80;;;10.60;;
10687;SDS011;5392;42.688;23.298;2023-12-07T13:58:36;13.10;;;10.20;;
10687;SDS011;5392;42.688;23.298;2023-12-07T14:01:03;15.57;;;10.63;;
10687;SDS011;5392;42.688;23.298;2023-12-07T14:03:30;11.40;;;8.68;;
10687;SDS011;5392;42.688;23.298;2023-12-07T14:05:56;7.82;;;7.03;;
10687;SDS011;5392;42.688;23.298;2023-12-07T14:08:24;9.00;;;7.50;;
10687;SDS011;5392;42.688;23.298;2023-12-07T14:10:52;7.97;;;7.18;;
10687;SDS011;5392;42.688;23.298;2023-12-07T14:13:19;8.90;;;7.93;;
10687;SDS011;5392;42.688;23.298;2023-12-07T14:15:46;8.40;;;7.57;;
10687;SDS011;5392;42.688;23.298;2023-12-07T14:18:13;11.48;;;8.50;;
10687;SDS011;5392;42.688;23.298;2023-12-07T14:20:41;10.40;;;9.07;;
10687;SDS011;5392;42.688;23.298;2023-12-07T14:23:31;11.15;;;9.73;;
10687;SDS011;5392;42.688;23.298;2023-12-07T14:26:01;13.68;;;10.93;;
10687;SDS011;5392;42.688;23.298;2023-12-07T14:28:31;16.83;;;11.20;;
10687;SDS011;5392;42.688;23.298;2023-12-07T14:31:01;11.48;;;8.88;;
10687;SDS011;5392;42.688;23.298;2023-12-07T14:33:30;12.40;;;9.10;;
10687;SDS011;5392;42.688;23.298;2023-12-07T14:35:57;13.90;;;8.52;;
10687;SDS011;5392;42.688;23.298;2023-12-07T14:38:24;12.70;;;9.05;;
10687;SDS011;5392;42.688;23.298;2023-12-07T14:40:51;10.68;;;9.13;;
10687;SDS011;5392;42.688;23.298;2023-12-07T14:43:18;12.95;;;10.40;;